CheckWX is a tool to help pilots better visualize weather data.  It is not intended as a substitute for an official pre-flight weather briefing.

13:43:04 UTC

VTBD METAR
Don Mueang International Airport
Bangkok, Thailand
Current

13 mins ago

VTBD 151330Z 18007KT 9999 FEW020CB 29/26 Q1007 NOSIG
Observed
Sep-15 @ 13:30 UTC
Wind
  • 180° at 7 KTS
Visibility
10,000+ meters
Flight Rules
VFR
Cloud Levels
  • Few at 2,000' AGL
Temperature
29°C / 84°F
Dewpoint
26°C / 79°F
Heat Index
36°C / 96°F
Humidity
84%
Altimeter
29.73" Hg
Pressure
1006.92 hPa
Previous

43 mins ago

VTBD 151300Z 19008KT 9999 FEW020CB SCT030 29/26 Q1006 NOSIG
Observed
Sep-15 @ 13:00 UTC
Wind
  • 190° at 8 KTS
Visibility
10,000+ meters
Flight Rules
VFR
Cloud Levels
  • Few at 2,000' AGL
  • Scattered at 3,000' AGL
Temperature
29°C / 84°F
Dewpoint
26°C / 79°F
Heat Index
36°C / 96°F
Humidity
84%
Altimeter
29.7" Hg
Pressure
1005.92 hPa
Previous

1 hour ago

VTBD 151230Z 18009KT 9999 FEW020CB SCT030 29/26 Q1006 TEMPO FM1240 TL1310 08015G25KT 5000 TSRA
Observed
Sep-15 @ 12:30 UTC
Wind
  • 180° at 9 KTS
Visibility
10,000+ meters
Flight Rules
VFR
Cloud Levels
  • Few at 2,000' AGL
  • Scattered at 3,000' AGL
Temperature
29°C / 84°F
Dewpoint
26°C / 79°F
Heat Index
36°C / 96°F
Humidity
84%
Altimeter
29.7" Hg
Pressure
1005.92 hPa